sensor_id;sensor_type;location;lat;lon;timestamp;P1;durP1;ratioP1;P2;durP2;ratioP2
44766;SDS011;30487;48.716;9.272;2023-09-30T00:00:15;9.98;;;3.50;;
44766;SDS011;30487;48.716;9.272;2023-09-30T00:02:41;10.50;;;3.10;;
44766;SDS011;30487;48.716;9.272;2023-09-30T00:05:06;9.82;;;3.17;;
44766;SDS011;30487;48.716;9.272;2023-09-30T00:07:33;8.90;;;2.88;;
44766;SDS011;30487;48.716;9.272;2023-09-30T00:09:59;9.00;;;3.13;;
44766;SDS011;30487;48.716;9.272;2023-09-30T00:12:25;9.63;;;2.95;;
44766;SDS011;30487;48.716;9.272;2023-09-30T00:14:51;9.10;;;2.92;;
44766;SDS011;30487;48.716;9.272;2023-09-30T00:17:17;8.35;;;2.78;;
44766;SDS011;30487;48.716;9.272;2023-09-30T00:19:42;7.55;;;2.58;;
44766;SDS011;30487;48.716;9.272;2023-09-30T00:22:09;10.18;;;3.13;;
44766;SDS011;30487;48.716;9.272;2023-09-30T00:24:35;7.03;;;2.80;;
44766;SDS011;30487;48.716;9.272;2023-09-30T00:27:01;6.43;;;2.78;;
44766;SDS011;30487;48.716;9.272;2023-09-30T00:29:26;7.10;;;2.70;;
44766;SDS011;30487;48.716;9.272;2023-09-30T00:31:52;8.15;;;2.85;;
44766;SDS011;30487;48.716;9.272;2023-09-30T00:34:17;8.63;;;2.45;;
44766;SDS011;30487;48.716;9.272;2023-09-30T00:36:43;9.35;;;3.10;;
44766;SDS011;30487;48.716;9.272;2023-09-30T00:39:08;7.90;;;3.22;;
44766;SDS011;30487;48.716;9.272;2023-09-30T00:41:35;10.40;;;3.50;;
44766;SDS011;30487;48.716;9.272;2023-09-30T00:44:01;7.25;;;2.70;;
44766;SDS011;30487;48.716;9.272;2023-09-30T00:46:33;7.65;;;3.08;;
44766;SDS011;30487;48.716;9.272;2023-09-30T00:49:02;8.63;;;3.05;;
44766;SDS011;30487;48.716;9.272;2023-09-30T00:51:28;6.72;;;2.42;;
44766;SDS011;30487;48.716;9.272;2023-09-30T00:53:56;6.72;;;2.40;;
44766;SDS011;30487;48.716;9.272;2023-09-30T00:56:25;8.43;;;2.42;;
44766;SDS011;30487;48.716;9.272;2023-09-30T00:58:52;6.60;;;2.42;;
44766;SDS011;30487;48.716;9.272;2023-09-30T01:01:19;7.80;;;2.53;;
44766;SDS011;30487;48.716;9.272;2023-09-30T01:03:45;6.93;;;2.42;;
44766;SDS011;30487;48.716;9.272;2023-09-30T01:06:11;9.40;;;2.75;;
44766;SDS011;30487;48.716;9.272;2023-09-30T01:08:37;6.40;;;2.38;;
44766;SDS011;30487;48.716;9.272;2023-09-30T01:11:03;6.38;;;2.40;;
44766;SDS011;30487;48.716;9.272;2023-09-30T01:13:33;9.85;;;2.65;;
44766;SDS011;30487;48.716;9.272;2023-09-30T01:16:06;7.03;;;2.00;;
44766;SDS011;30487;48.716;9.272;2023-09-30T01:18:34;6.15;;;2.17;;
44766;SDS011;30487;48.716;9.272;2023-09-30T01:21:02;6.13;;;2.30;;
44766;SDS011;30487;48.716;9.272;2023-09-30T01:23:30;7.22;;;2.40;;
44766;SDS011;30487;48.716;9.272;2023-09-30T01:26:12;5.82;;;2.20;;
44766;SDS011;30487;48.716;9.272;2023-09-30T01:28:38;4.93;;;2.13;;
44766;SDS011;30487;48.716;9.272;2023-09-30T01:31:05;6.70;;;2.28;;
44766;SDS011;30487;48.716;9.272;2023-09-30T01:33:31;4.82;;;1.80;;
44766;SDS011;30487;48.716;9.272;2023-09-30T01:35:58;5.60;;;1.88;;
44766;SDS011;30487;48.716;9.272;2023-09-30T01:38:24;6.05;;;1.95;;
44766;SDS011;30487;48.716;9.272;2023-09-30T01:40:51;5.35;;;1.80;;
44766;SDS011;30487;48.716;9.272;2023-09-30T01:43:19;7.90;;;2.28;;
44766;SDS011;30487;48.716;9.272;2023-09-30T01:45:44;7.13;;;2.55;;
44766;SDS011;30487;48.716;9.272;2023-09-30T01:48:10;5.88;;;2.40;;
44766;SDS011;30487;48.716;9.272;2023-09-30T01:50:39;4.55;;;2.20;;
44766;SDS011;30487;48.716;9.272;2023-09-30T01:53:05;3.85;;;1.80;;
44766;SDS011;30487;48.716;9.272;2023-09-30T01:55:34;5.00;;;2.20;;
44766;SDS011;30487;48.716;9.272;2023-09-30T01:58:01;5.22;;;2.20;;
44766;SDS011;30487;48.716;9.272;2023-09-30T02:00:27;6.80;;;2.53;;
44766;SDS011;30487;48.716;9.272;2023-09-30T02:02:53;6.15;;;2.30;;
44766;SDS011;30487;48.716;9.272;2023-09-30T02:05:21;4.75;;;2.10;;
44766;SDS011;30487;48.716;9.272;2023-09-30T02:07:47;4.57;;;2.15;;
44766;SDS011;30487;48.716;9.272;2023-09-30T02:10:13;9.63;;;2.72;;
44766;SDS011;30487;48.716;9.272;2023-09-30T02:12:39;5.95;;;2.55;;
44766;SDS011;30487;48.716;9.272;2023-09-30T02:15:04;8.95;;;2.40;;
44766;SDS011;30487;48.716;9.272;2023-09-30T02:17:32;5.40;;;2.00;;
44766;SDS011;30487;48.716;9.272;2023-09-30T02:19:57;8.35;;;2.42;;
44766;SDS011;30487;48.716;9.272;2023-09-30T02:22:23;4.18;;;2.03;;
44766;SDS011;30487;48.716;9.272;2023-09-30T02:24:49;7.97;;;2.50;;
44766;SDS011;30487;48.716;9.272;2023-09-30T02:27:15;6.65;;;2.50;;
44766;SDS011;30487;48.716;9.272;2023-09-30T02:29:41;8.02;;;2.78;;
44766;SDS011;30487;48.716;9.272;2023-09-30T02:32:06;6.32;;;2.35;;
44766;SDS011;30487;48.716;9.272;2023-09-30T02:34:32;6.82;;;2.53;;
44766;SDS011;30487;48.716;9.272;2023-09-30T02:36:58;6.72;;;2.45;;
44766;SDS011;30487;48.716;9.272;2023-09-30T02:39:25;8.30;;;2.60;;
44766;SDS011;30487;48.716;9.272;2023-09-30T02:41:51;6.95;;;2.85;;
44766;SDS011;30487;48.716;9.272;2023-09-30T02:44:17;7.88;;;2.50;;
44766;SDS011;30487;48.716;9.272;2023-09-30T02:46:43;8.10;;;2.30;;
44766;SDS011;30487;48.716;9.272;2023-09-30T02:49:08;6.97;;;2.60;;
44766;SDS011;30487;48.716;9.272;2023-09-30T02:51:34;6.72;;;2.75;;
44766;SDS011;30487;48.716;9.272;2023-09-30T02:53:59;5.88;;;2.63;;
44766;SDS011;30487;48.716;9.272;2023-09-30T02:56:25;7.05;;;2.50;;
44766;SDS011;30487;48.716;9.272;2023-09-30T02:58:53;6.80;;;2.58;;
44766;SDS011;30487;48.716;9.272;2023-09-30T03:01:19;7.90;;;2.53;;
44766;SDS011;30487;48.716;9.272;2023-09-30T03:03:45;6.72;;;2.50;;
44766;SDS011;30487;48.716;9.272;2023-09-30T03:06:11;7.38;;;2.65;;
44766;SDS011;30487;48.716;9.272;2023-09-30T03:08:37;7.55;;;2.60;;
44766;SDS011;30487;48.716;9.272;2023-09-30T03:11:03;5.80;;;2.60;;
44766;SDS011;30487;48.716;9.272;2023-09-30T03:13:29;8.68;;;2.80;;
44766;SDS011;30487;48.716;9.272;2023-09-30T03:15:55;5.90;;;2.53;;
44766;SDS011;30487;48.716;9.272;2023-09-30T03:18:22;7.78;;;2.70;;
44766;SDS011;30487;48.716;9.272;2023-09-30T03:20:58;7.10;;;2.95;;
44766;SDS011;30487;48.716;9.272;2023-09-30T03:23:25;5.13;;;2.60;;
44766;SDS011;30487;48.716;9.272;2023-09-30T03:25:58;6.00;;;2.65;;
44766;SDS011;30487;48.716;9.272;2023-09-30T03:28:24;7.97;;;3.05;;
44766;SDS011;30487;48.716;9.272;2023-09-30T03:30:49;5.00;;;2.28;;
44766;SDS011;30487;48.716;9.272;2023-09-30T03:33:15;7.05;;;2.75;;
44766;SDS011;30487;48.716;9.272;2023-09-30T03:35:42;6.07;;;2.72;;
44766;SDS011;30487;48.716;9.272;2023-09-30T03:38:07;6.70;;;2.90;;
44766;SDS011;30487;48.716;9.272;2023-09-30T03:40:35;7.20;;;2.65;;
44766;SDS011;30487;48.716;9.272;2023-09-30T03:43:03;6.10;;;2.90;;
44766;SDS011;30487;48.716;9.272;2023-09-30T03:45:30;8.13;;;3.00;;
44766;SDS011;30487;48.716;9.272;2023-09-30T03:47:58;5.32;;;2.45;;
44766;SDS011;30487;48.716;9.272;2023-09-30T03:50:23;6.68;;;2.58;;
44766;SDS011;30487;48.716;9.272;2023-09-30T03:52:49;8.25;;;2.70;;
44766;SDS011;30487;48.716;9.272;2023-09-30T03:55:17;8.95;;;2.70;;
44766;SDS011;30487;48.716;9.272;2023-09-30T03:57:45;7.18;;;2.50;;
44766;SDS011;30487;48.716;9.272;2023-09-30T04:00:12;6.85;;;2.30;;
44766;SDS011;30487;48.716;9.272;2023-09-30T04:02:43;7.82;;;2.35;;
44766;SDS011;30487;48.716;9.272;2023-09-30T04:05:13;7.85;;;2.88;;
44766;SDS011;30487;48.716;9.272;2023-09-30T04:07:39;5.47;;;2.63;;
44766;SDS011;30487;48.716;9.272;2023-09-30T04:10:07;9.15;;;3.10;;
44766;SDS011;30487;48.716;9.272;2023-09-30T04:12:33;6.15;;;2.70;;
44766;SDS011;30487;48.716;9.272;2023-09-30T04:14:59;6.50;;;2.47;;
44766;SDS011;30487;48.716;9.272;2023-09-30T04:17:25;7.47;;;2.80;;
44766;SDS011;30487;48.716;9.272;2023-09-30T04:19:52;6.63;;;2.70;;
44766;SDS011;30487;48.716;9.272;2023-09-30T04:22:17;8.07;;;2.67;;
44766;SDS011;30487;48.716;9.272;2023-09-30T04:24:46;7.30;;;2.90;;
44766;SDS011;30487;48.716;9.272;2023-09-30T04:27:17;7.22;;;2.97;;
44766;SDS011;30487;48.716;9.272;2023-09-30T04:29:43;7.45;;;2.80;;
44766;SDS011;30487;48.716;9.272;2023-09-30T04:32:08;5.00;;;2.30;;
44766;SDS011;30487;48.716;9.272;2023-09-30T04:34:34;7.85;;;3.05;;
44766;SDS011;30487;48.716;9.272;2023-09-30T04:37:00;9.40;;;2.60;;
44766;SDS011;30487;48.716;9.272;2023-09-30T04:39:26;6.20;;;3.13;;
44766;SDS011;30487;48.716;9.272;2023-09-30T04:41:52;4.70;;;2.53;;
44766;SDS011;30487;48.716;9.272;2023-09-30T04:44:18;7.53;;;2.67;;
44766;SDS011;30487;48.716;9.272;2023-09-30T04:46:44;7.82;;;3.42;;
44766;SDS011;30487;48.716;9.272;2023-09-30T04:49:13;8.85;;;3.13;;
44766;SDS011;30487;48.716;9.272;2023-09-30T04:51:40;9.75;;;2.92;;
44766;SDS011;30487;48.716;9.272;2023-09-30T04:54:05;7.72;;;3.22;;
44766;SDS011;30487;48.716;9.272;2023-09-30T04:56:34;8.88;;;3.40;;
44766;SDS011;30487;48.716;9.272;2023-09-30T04:59:00;10.63;;;3.40;;
44766;SDS011;30487;48.716;9.272;2023-09-30T05:01:27;8.20;;;3.28;;
44766;SDS011;30487;48.716;9.272;2023-09-30T05:03:53;8.18;;;3.08;;
44766;SDS011;30487;48.716;9.272;2023-09-30T05:06:19;10.60;;;3.38;;
44766;SDS011;30487;48.716;9.272;2023-09-30T05:08:46;8.88;;;3.05;;
44766;SDS011;30487;48.716;9.272;2023-09-30T05:11:12;8.05;;;3.10;;
44766;SDS011;30487;48.716;9.272;2023-09-30T05:13:38;11.25;;;3.22;;
44766;SDS011;30487;48.716;9.272;2023-09-30T05:16:04;7.32;;;2.88;;
44766;SDS011;30487;48.716;9.272;2023-09-30T05:18:29;9.07;;;3.05;;
44766;SDS011;30487;48.716;9.272;2023-09-30T05:20:55;7.47;;;3.03;;
44766;SDS011;30487;48.716;9.272;2023-09-30T05:23:21;9.38;;;3.10;;
44766;SDS011;30487;48.716;9.272;2023-09-30T05:25:47;9.90;;;3.50;;
44766;SDS011;30487;48.716;9.272;2023-09-30T05:28:12;6.80;;;3.22;;
44766;SDS011;30487;48.716;9.272;2023-09-30T05:30:38;8.50;;;3.22;;
44766;SDS011;30487;48.716;9.272;2023-09-30T05:33:05;7.63;;;3.30;;
44766;SDS011;30487;48.716;9.272;2023-09-30T05:35:31;10.05;;;3.10;;
44766;SDS011;30487;48.716;9.272;2023-09-30T05:37:57;9.05;;;2.97;;
44766;SDS011;30487;48.716;9.272;2023-09-30T05:40:23;8.27;;;3.45;;
44766;SDS011;30487;48.716;9.272;2023-09-30T05:42:54;7.93;;;3.13;;
44766;SDS011;30487;48.716;9.272;2023-09-30T05:45:23;7.63;;;3.20;;
44766;SDS011;30487;48.716;9.272;2023-09-30T05:47:49;7.88;;;3.28;;
44766;SDS011;30487;48.716;9.272;2023-09-30T05:50:17;9.40;;;3.47;;
44766;SDS011;30487;48.716;9.272;2023-09-30T05:52:42;10.23;;;3.42;;
44766;SDS011;30487;48.716;9.272;2023-09-30T05:55:09;7.85;;;3.22;;
44766;SDS011;30487;48.716;9.272;2023-09-30T05:57:35;7.78;;;3.22;;
44766;SDS011;30487;48.716;9.272;2023-09-30T06:00:01;6.40;;;3.05;;
44766;SDS011;30487;48.716;9.272;2023-09-30T06:02:45;7.72;;;3.42;;
44766;SDS011;30487;48.716;9.272;2023-09-30T06:05:16;10.02;;;3.53;;
44766;SDS011;30487;48.716;9.272;2023-09-30T06:07:43;10.15;;;3.28;;
44766;SDS011;30487;48.716;9.272;2023-09-30T06:10:10;8.23;;;3.22;;
44766;SDS011;30487;48.716;9.272;2023-09-30T06:12:36;7.35;;;3.40;;
44766;SDS011;30487;48.716;9.272;2023-09-30T06:15:02;9.02;;;3.28;;
44766;SDS011;30487;48.716;9.272;2023-09-30T06:17:28;7.35;;;3.35;;
44766;SDS011;30487;48.716;9.272;2023-09-30T06:19:53;10.45;;;3.20;;
44766;SDS011;30487;48.716;9.272;2023-09-30T06:22:20;15.65;;;3.67;;
44766;SDS011;30487;48.716;9.272;2023-09-30T06:24:46;8.77;;;3.60;;
44766;SDS011;30487;48.716;9.272;2023-09-30T06:27:13;8.00;;;3.38;;
44766;SDS011;30487;48.716;9.272;2023-09-30T06:29:39;6.38;;;3.17;;
44766;SDS011;30487;48.716;9.272;2023-09-30T06:32:06;7.35;;;3.28;;
44766;SDS011;30487;48.716;9.272;2023-09-30T06:34:32;8.00;;;3.25;;
44766;SDS011;30487;48.716;9.272;2023-09-30T06:36:59;7.45;;;3.65;;
44766;SDS011;30487;48.716;9.272;2023-09-30T06:39:24;8.80;;;3.60;;
44766;SDS011;30487;48.716;9.272;2023-09-30T06:41:50;7.68;;;3.58;;
44766;SDS011;30487;48.716;9.272;2023-09-30T06:44:16;8.98;;;4.00;;
44766;SDS011;30487;48.716;9.272;2023-09-30T06:46:42;9.73;;;3.85;;
44766;SDS011;30487;48.716;9.272;2023-09-30T06:49:08;5.57;;;3.28;;
44766;SDS011;30487;48.716;9.272;2023-09-30T06:51:34;7.22;;;3.10;;
44766;SDS011;30487;48.716;9.272;2023-09-30T06:53:59;6.22;;;2.53;;
44766;SDS011;30487;48.716;9.272;2023-09-30T06:56:25;6.55;;;3.03;;
44766;SDS011;30487;48.716;9.272;2023-09-30T06:58:51;6.75;;;2.67;;
44766;SDS011;30487;48.716;9.272;2023-09-30T07:01:17;7.93;;;2.38;;
44766;SDS011;30487;48.716;9.272;2023-09-30T07:03:43;6.60;;;2.33;;
44766;SDS011;30487;48.716;9.272;2023-09-30T07:06:08;5.85;;;2.63;;
44766;SDS011;30487;48.716;9.272;2023-09-30T07:08:34;8.48;;;2.95;;
44766;SDS011;30487;48.716;9.272;2023-09-30T07:11:00;6.93;;;2.78;;
44766;SDS011;30487;48.716;9.272;2023-09-30T07:13:25;6.20;;;2.70;;
44766;SDS011;30487;48.716;9.272;2023-09-30T07:15:51;5.50;;;2.30;;
44766;SDS011;30487;48.716;9.272;2023-09-30T07:18:17;6.30;;;2.42;;
44766;SDS011;30487;48.716;9.272;2023-09-30T07:20:43;5.43;;;2.38;;
44766;SDS011;30487;48.716;9.272;2023-09-30T07:23:08;6.43;;;2.42;;
44766;SDS011;30487;48.716;9.272;2023-09-30T07:25:34;8.35;;;2.60;;
44766;SDS011;30487;48.716;9.272;2023-09-30T07:28:00;7.57;;;2.55;;
44766;SDS011;30487;48.716;9.272;2023-09-30T07:30:26;6.38;;;2.50;;
44766;SDS011;30487;48.716;9.272;2023-09-30T07:32:52;7.82;;;2.63;;
44766;SDS011;30487;48.716;9.272;2023-09-30T07:35:17;7.63;;;2.78;;
44766;SDS011;30487;48.716;9.272;2023-09-30T07:37:43;8.40;;;3.22;;
44766;SDS011;30487;48.716;9.272;2023-09-30T07:40:09;6.68;;;2.80;;
44766;SDS011;30487;48.716;9.272;2023-09-30T07:42:35;8.60;;;3.30;;
44766;SDS011;30487;48.716;9.272;2023-09-30T07:45:01;8.05;;;2.80;;
44766;SDS011;30487;48.716;9.272;2023-09-30T07:47:29;7.85;;;3.00;;
44766;SDS011;30487;48.716;9.272;2023-09-30T07:49:56;6.35;;;2.58;;
44766;SDS011;30487;48.716;9.272;2023-09-30T07:52:21;7.43;;;3.10;;
44766;SDS011;30487;48.716;9.272;2023-09-30T07:54:47;7.15;;;3.33;;
44766;SDS011;30487;48.716;9.272;2023-09-30T07:57:12;7.65;;;3.40;;
44766;SDS011;30487;48.716;9.272;2023-09-30T07:59:38;8.20;;;3.45;;
44766;SDS011;30487;48.716;9.272;2023-09-30T08:02:04;9.35;;;3.20;;
44766;SDS011;30487;48.716;9.272;2023-09-30T08:04:30;8.98;;;3.70;;
44766;SDS011;30487;48.716;9.272;2023-09-30T08:06:56;9.93;;;3.45;;
44766;SDS011;30487;48.716;9.272;2023-09-30T08:09:22;10.57;;;3.67;;
44766;SDS011;30487;48.716;9.272;2023-09-30T08:11:49;10.18;;;3.35;;
44766;SDS011;30487;48.716;9.272;2023-09-30T08:14:15;6.68;;;3.17;;
44766;SDS011;30487;48.716;9.272;2023-09-30T08:16:41;7.85;;;3.20;;
44766;SDS011;30487;48.716;9.272;2023-09-30T08:19:07;8.07;;;2.97;;
44766;SDS011;30487;48.716;9.272;2023-09-30T08:21:33;8.50;;;3.70;;
44766;SDS011;30487;48.716;9.272;2023-09-30T08:23:59;6.63;;;3.00;;
44766;SDS011;30487;48.716;9.272;2023-09-30T08:26:25;7.43;;;2.90;;
44766;SDS011;30487;48.716;9.272;2023-09-30T08:28:51;9.45;;;3.40;;
44766;SDS011;30487;48.716;9.272;2023-09-30T08:31:16;7.65;;;2.42;;
44766;SDS011;30487;48.716;9.272;2023-09-30T08:33:42;8.02;;;3.03;;
44766;SDS011;30487;48.716;9.272;2023-09-30T08:36:10;10.18;;;3.40;;
44766;SDS011;30487;48.716;9.272;2023-09-30T08:38:37;6.72;;;2.92;;
44766;SDS011;30487;48.716;9.272;2023-09-30T08:41:04;10.20;;;2.90;;
44766;SDS011;30487;48.716;9.272;2023-09-30T08:43:30;7.25;;;2.78;;
44766;SDS011;30487;48.716;9.272;2023-09-30T08:45:57;7.68;;;2.97;;
44766;SDS011;30487;48.716;9.272;2023-09-30T08:48:25;8.30;;;3.63;;
44766;SDS011;30487;48.716;9.272;2023-09-30T08:50:53;8.48;;;3.65;;
44766;SDS011;30487;48.716;9.272;2023-09-30T08:53:22;8.52;;;3.40;;
44766;SDS011;30487;48.716;9.272;2023-09-30T08:55:48;5.75;;;3.00;;
44766;SDS011;30487;48.716;9.272;2023-09-30T08:58:20;11.15;;;4.00;;
44766;SDS011;30487;48.716;9.272;2023-09-30T09:00:49;9.55;;;3.58;;
44766;SDS011;30487;48.716;9.272;2023-09-30T09:03:15;7.95;;;3.72;;
44766;SDS011;30487;48.716;9.272;2023-09-30T09:05:43;9.00;;;3.30;;
44766;SDS011;30487;48.716;9.272;2023-09-30T09:08:08;7.97;;;3.42;;
44766;SDS011;30487;48.716;9.272;2023-09-30T09:10:34;7.97;;;3.45;;
44766;SDS011;30487;48.716;9.272;2023-09-30T09:13:00;6.65;;;3.20;;
44766;SDS011;30487;48.716;9.272;2023-09-30T09:15:26;9.32;;;3.47;;
44766;SDS011;30487;48.716;9.272;2023-09-30T09:17:56;7.18;;;3.20;;
44766;SDS011;30487;48.716;9.272;2023-09-30T09:20:22;6.72;;;3.25;;
44766;SDS011;30487;48.716;9.272;2023-09-30T09:22:49;6.78;;;2.97;;
44766;SDS011;30487;48.716;9.272;2023-09-30T09:25:18;9.32;;;3.08;;
44766;SDS011;30487;48.716;9.272;2023-09-30T09:27:44;6.32;;;3.33;;
44766;SDS011;30487;48.716;9.272;2023-09-30T09:30:28;7.82;;;3.20;;
44766;SDS011;30487;48.716;9.272;2023-09-30T09:35:32;9.55;;;3.35;;
44766;SDS011;30487;48.716;9.272;2023-09-30T09:40:37;9.10;;;3.30;;
44766;SDS011;30487;48.716;9.272;2023-09-30T09:43:03;7.72;;;3.08;;
44766;SDS011;30487;48.716;9.272;2023-09-30T09:45:32;8.70;;;3.25;;
44766;SDS011;30487;48.716;9.272;2023-09-30T09:47:58;6.95;;;3.10;;
44766;SDS011;30487;48.716;9.272;2023-09-30T09:50:24;7.50;;;2.70;;
44766;SDS011;30487;48.716;9.272;2023-09-30T09:52:53;8.68;;;2.80;;
44766;SDS011;30487;48.716;9.272;2023-09-30T09:55:25;8.18;;;3.20;;
44766;SDS011;30487;48.716;9.272;2023-09-30T09:57:52;13.85;;;3.67;;
44766;SDS011;30487;48.716;9.272;2023-09-30T10:00:20;10.00;;;2.95;;
44766;SDS011;30487;48.716;9.272;2023-09-30T10:02:48;7.65;;;3.35;;
44766;SDS011;30487;48.716;9.272;2023-09-30T10:05:16;7.05;;;3.05;;
44766;SDS011;30487;48.716;9.272;2023-09-30T10:07:56;9.05;;;3.10;;
44766;SDS011;30487;48.716;9.272;2023-09-30T10:10:26;8.40;;;3.50;;
44766;SDS011;30487;48.716;9.272;2023-09-30T10:12:53;7.05;;;3.42;;
44766;SDS011;30487;48.716;9.272;2023-09-30T10:18:06;5.35;;;2.80;;
44766;SDS011;30487;48.716;9.272;2023-09-30T10:20:37;9.27;;;2.90;;
44766;SDS011;30487;48.716;9.272;2023-09-30T10:23:22;8.70;;;2.92;;
44766;SDS011;30487;48.716;9.272;2023-09-30T10:25:50;7.85;;;3.00;;
44766;SDS011;30487;48.716;9.272;2023-09-30T10:28:46;6.57;;;3.10;;
44766;SDS011;30487;48.716;9.272;2023-09-30T10:31:22;7.45;;;3.38;;
44766;SDS011;30487;48.716;9.272;2023-09-30T10:36:28;6.32;;;2.88;;
44766;SDS011;30487;48.716;9.272;2023-09-30T10:46:55;8.27;;;3.60;;
44766;SDS011;30487;48.716;9.272;2023-09-30T10:54:23;10.35;;;4.20;;
44766;SDS011;30487;48.716;9.272;2023-09-30T10:56:49;13.15;;;3.90;;
44766;SDS011;30487;48.716;9.272;2023-09-30T10:59:21;8.43;;;3.42;;
44766;SDS011;30487;48.716;9.272;2023-09-30T11:04:14;7.78;;;3.40;;
44766;SDS011;30487;48.716;9.272;2023-09-30T11:06:43;9.10;;;3.67;;
44766;SDS011;30487;48.716;9.272;2023-09-30T11:09:14;9.15;;;3.35;;
44766;SDS011;30487;48.716;9.272;2023-09-30T11:14:18;8.52;;;3.45;;
44766;SDS011;30487;48.716;9.272;2023-09-30T11:16:44;7.65;;;3.70;;
44766;SDS011;30487;48.716;9.272;2023-09-30T11:19:11;9.35;;;3.42;;
44766;SDS011;30487;48.716;9.272;2023-09-30T11:21:38;8.27;;;3.50;;
44766;SDS011;30487;48.716;9.272;2023-09-30T11:24:04;7.50;;;3.50;;
44766;SDS011;30487;48.716;9.272;2023-09-30T11:26:31;9.13;;;3.90;;
44766;SDS011;30487;48.716;9.272;2023-09-30T11:29:04;9.40;;;4.05;;
44766;SDS011;30487;48.716;9.272;2023-09-30T11:31:46;10.38;;;4.38;;
44766;SDS011;30487;48.716;9.272;2023-09-30T11:34:17;8.60;;;4.13;;
44766;SDS011;30487;48.716;9.272;2023-09-30T11:36:50;9.13;;;4.15;;
44766;SDS011;30487;48.716;9.272;2023-09-30T11:39:27;8.40;;;3.83;;
44766;SDS011;30487;48.716;9.272;2023-09-30T11:41:54;9.10;;;4.07;;
44766;SDS011;30487;48.716;9.272;2023-09-30T11:44:22;8.85;;;4.05;;
44766;SDS011;30487;48.716;9.272;2023-09-30T11:46:52;9.48;;;4.13;;
44766;SDS011;30487;48.716;9.272;2023-09-30T11:49:24;10.10;;;4.38;;
44766;SDS011;30487;48.716;9.272;2023-09-30T11:51:52;10.48;;;4.10;;
44766;SDS011;30487;48.716;9.272;2023-09-30T11:54:17;8.75;;;3.78;;
44766;SDS011;30487;48.716;9.272;2023-09-30T11:56:43;8.70;;;4.03;;
44766;SDS011;30487;48.716;9.272;2023-09-30T11:59:10;10.27;;;4.13;;
44766;SDS011;30487;48.716;9.272;2023-09-30T12:01:36;9.98;;;4.07;;
44766;SDS011;30487;48.716;9.272;2023-09-30T12:04:02;7.45;;;3.78;;
44766;SDS011;30487;48.716;9.272;2023-09-30T12:06:28;10.23;;;3.95;;
44766;SDS011;30487;48.716;9.272;2023-09-30T12:08:54;10.43;;;4.32;;
44766;SDS011;30487;48.716;9.272;2023-09-30T12:11:19;10.43;;;4.35;;
44766;SDS011;30487;48.716;9.272;2023-09-30T12:13:47;12.75;;;4.55;;
44766;SDS011;30487;48.716;9.272;2023-09-30T12:16:16;11.10;;;4.32;;
44766;SDS011;30487;48.716;9.272;2023-09-30T12:18:41;13.35;;;4.57;;
44766;SDS011;30487;48.716;9.272;2023-09-30T12:21:08;10.93;;;4.22;;
44766;SDS011;30487;48.716;9.272;2023-09-30T12:23:38;7.63;;;3.90;;
44766;SDS011;30487;48.716;9.272;2023-09-30T12:26:04;7.90;;;4.00;;
44766;SDS011;30487;48.716;9.272;2023-09-30T12:28:33;8.77;;;4.25;;
44766;SDS011;30487;48.716;9.272;2023-09-30T12:30:59;12.70;;;4.38;;
44766;SDS011;30487;48.716;9.272;2023-09-30T12:33:28;11.05;;;3.97;;
44766;SDS011;30487;48.716;9.272;2023-09-30T12:35:55;13.70;;;4.53;;
44766;SDS011;30487;48.716;9.272;2023-09-30T12:38:21;14.85;;;3.95;;
44766;SDS011;30487;48.716;9.272;2023-09-30T12:40:47;9.63;;;4.25;;
44766;SDS011;30487;48.716;9.272;2023-09-30T12:43:13;8.00;;;3.70;;
44766;SDS011;30487;48.716;9.272;2023-09-30T12:45:39;9.27;;;3.97;;
44766;SDS011;30487;48.716;9.272;2023-09-30T12:48:04;12.05;;;4.10;;
44766;SDS011;30487;48.716;9.272;2023-09-30T12:50:30;13.57;;;4.45;;
44766;SDS011;30487;48.716;9.272;2023-09-30T12:52:56;10.77;;;4.03;;
44766;SDS011;30487;48.716;9.272;2023-09-30T12:55:21;9.30;;;4.03;;
44766;SDS011;30487;48.716;9.272;2023-09-30T12:57:47;12.75;;;4.35;;
44766;SDS011;30487;48.716;9.272;2023-09-30T13:00:13;11.50;;;4.20;;
44766;SDS011;30487;48.716;9.272;2023-09-30T13:02:40;9.45;;;4.47;;
44766;SDS011;30487;48.716;9.272;2023-09-30T13:05:06;9.18;;;4.30;;
44766;SDS011;30487;48.716;9.272;2023-09-30T13:07:32;10.13;;;4.63;;
44766;SDS011;30487;48.716;9.272;2023-09-30T13:09:58;9.45;;;4.03;;
44766;SDS011;30487;48.716;9.272;2023-09-30T13:12:25;12.20;;;4.40;;
44766;SDS011;30487;48.716;9.272;2023-09-30T13:14:51;10.55;;;4.22;;
44766;SDS011;30487;48.716;9.272;2023-09-30T13:17:21;9.05;;;4.13;;
44766;SDS011;30487;48.716;9.272;2023-09-30T13:19:47;10.25;;;4.30;;
44766;SDS011;30487;48.716;9.272;2023-09-30T13:22:12;9.82;;;4.13;;
44766;SDS011;30487;48.716;9.272;2023-09-30T13:24:38;11.38;;;4.55;;
44766;SDS011;30487;48.716;9.272;2023-09-30T13:27:04;32.75;;;5.13;;
44766;SDS011;30487;48.716;9.272;2023-09-30T13:29:31;12.25;;;4.28;;
44766;SDS011;30487;48.716;9.272;2023-09-30T13:31:56;12.18;;;4.50;;
44766;SDS011;30487;48.716;9.272;2023-09-30T13:34:22;9.25;;;4.25;;
44766;SDS011;30487;48.716;9.272;2023-09-30T13:36:48;9.68;;;4.32;;
44766;SDS011;30487;48.716;9.272;2023-09-30T13:39:13;9.50;;;3.63;;
44766;SDS011;30487;48.716;9.272;2023-09-30T13:41:39;11.63;;;4.22;;
44766;SDS011;30487;48.716;9.272;2023-09-30T13:44:07;13.38;;;5.00;;
44766;SDS011;30487;48.716;9.272;2023-09-30T13:46:33;13.32;;;4.20;;
44766;SDS011;30487;48.716;9.272;2023-09-30T13:48:58;11.20;;;4.32;;
44766;SDS011;30487;48.716;9.272;2023-09-30T13:51:24;12.20;;;4.85;;
44766;SDS011;30487;48.716;9.272;2023-09-30T13:53:51;11.63;;;4.55;;
44766;SDS011;30487;48.716;9.272;2023-09-30T13:56:18;13.63;;;4.25;;
44766;SDS011;30487;48.716;9.272;2023-09-30T13:58:44;11.88;;;4.50;;
44766;SDS011;30487;48.716;9.272;2023-09-30T14:01:09;10.75;;;4.07;;
44766;SDS011;30487;48.716;9.272;2023-09-30T14:03:37;8.90;;;4.18;;
44766;SDS011;30487;48.716;9.272;2023-09-30T14:06:08;12.98;;;4.78;;
44766;SDS011;30487;48.716;9.272;2023-09-30T14:08:38;14.57;;;4.07;;
44766;SDS011;30487;48.716;9.272;2023-09-30T14:11:04;10.82;;;4.20;;
44766;SDS011;30487;48.716;9.272;2023-09-30T14:13:29;9.45;;;4.32;;
44766;SDS011;30487;48.716;9.272;2023-09-30T14:15:55;11.75;;;4.53;;
44766;SDS011;30487;48.716;9.272;2023-09-30T14:18:21;9.50;;;4.45;;
44766;SDS011;30487;48.716;9.272;2023-09-30T14:20:47;11.15;;;4.43;;
44766;SDS011;30487;48.716;9.272;2023-09-30T14:23:13;8.65;;;3.65;;
44766;SDS011;30487;48.716;9.272;2023-09-30T14:25:38;10.27;;;4.25;;
44766;SDS011;30487;48.716;9.272;2023-09-30T14:28:04;8.02;;;4.07;;
44766;SDS011;30487;48.716;9.272;2023-09-30T14:30:30;9.02;;;3.95;;
44766;SDS011;30487;48.716;9.272;2023-09-30T14:32:56;10.00;;;4.03;;
44766;SDS011;30487;48.716;9.272;2023-09-30T14:35:21;10.48;;;4.40;;
44766;SDS011;30487;48.716;9.272;2023-09-30T14:37:47;16.15;;;4.47;;
44766;SDS011;30487;48.716;9.272;2023-09-30T14:40:13;13.43;;;4.22;;
44766;SDS011;30487;48.716;9.272;2023-09-30T14:42:39;13.18;;;4.18;;
44766;SDS011;30487;48.716;9.272;2023-09-30T14:45:04;10.07;;;4.18;;
44766;SDS011;30487;48.716;9.272;2023-09-30T14:47:30;10.43;;;4.53;;
44766;SDS011;30487;48.716;9.272;2023-09-30T14:49:56;11.73;;;4.60;;
44766;SDS011;30487;48.716;9.272;2023-09-30T14:52:22;10.20;;;4.43;;
44766;SDS011;30487;48.716;9.272;2023-09-30T14:54:47;11.93;;;4.53;;
44766;SDS011;30487;48.716;9.272;2023-09-30T14:57:13;9.93;;;3.92;;
44766;SDS011;30487;48.716;9.272;2023-09-30T14:59:40;11.43;;;4.38;;
44766;SDS011;30487;48.716;9.272;2023-09-30T15:02:06;10.68;;;4.35;;
44766;SDS011;30487;48.716;9.272;2023-09-30T15:04:35;9.18;;;3.97;;
44766;SDS011;30487;48.716;9.272;2023-09-30T15:07:01;9.88;;;4.22;;
44766;SDS011;30487;48.716;9.272;2023-09-30T15:09:27;12.90;;;4.22;;
44766;SDS011;30487;48.716;9.272;2023-09-30T15:11:52;11.52;;;4.47;;